sensor_id;sensor_type;location;lat;lon;timestamp;P1;durP1;ratioP1;P2;durP2;ratioP2
9848;SDS011;4963;51.444;6.528;2023-04-01T00:01:45;5.90;;;2.17;;
9848;SDS011;4963;51.444;6.528;2023-04-01T00:04:11;4.87;;;1.40;;
9848;SDS011;4963;51.444;6.528;2023-04-01T00:06:40;6.40;;;1.70;;
9848;SDS011;4963;51.444;6.528;2023-04-01T00:09:06;5.87;;;1.50;;
9848;SDS011;4963;51.444;6.528;2023-04-01T00:11:33;3.73;;;1.50;;
9848;SDS011;4963;51.444;6.528;2023-04-01T00:14:00;6.23;;;1.57;;
9848;SDS011;4963;51.444;6.528;2023-04-01T00:16:27;6.43;;;2.13;;
9848;SDS011;4963;51.444;6.528;2023-04-01T00:18:54;2.80;;;1.40;;
9848;SDS011;4963;51.444;6.528;2023-04-01T00:21:21;4.13;;;1.57;;
9848;SDS011;4963;51.444;6.528;2023-04-01T00:23:49;4.57;;;1.47;;
9848;SDS011;4963;51.444;6.528;2023-04-01T00:26:17;2.80;;;1.40;;
9848;SDS011;4963;51.444;6.528;2023-04-01T00:28:46;3.57;;;1.37;;
9848;SDS011;4963;51.444;6.528;2023-04-01T00:31:13;2.50;;;1.40;;
9848;SDS011;4963;51.444;6.528;2023-04-01T00:33:40;2.90;;;1.47;;
9848;SDS011;4963;51.444;6.528;2023-04-01T00:36:08;4.53;;;1.67;;
9848;SDS011;4963;51.444;6.528;2023-04-01T00:38:36;2.07;;;1.20;;
9848;SDS011;4963;51.444;6.528;2023-04-01T00:41:04;4.27;;;1.77;;
9848;SDS011;4963;51.444;6.528;2023-04-01T00:43:32;3.40;;;1.63;;
9848;SDS011;4963;51.444;6.528;2023-04-01T00:45:59;4.40;;;1.60;;
9848;SDS011;4963;51.444;6.528;2023-04-01T00:48:28;2.57;;;1.40;;
9848;SDS011;4963;51.444;6.528;2023-04-01T00:50:58;3.77;;;1.30;;
9848;SDS011;4963;51.444;6.528;2023-04-01T00:53:28;2.63;;;1.23;;
9848;SDS011;4963;51.444;6.528;2023-04-01T00:55:57;1.83;;;1.17;;
9848;SDS011;4963;51.444;6.528;2023-04-01T00:58:29;1.63;;;1.37;;
9848;SDS011;4963;51.444;6.528;2023-04-01T01:00:59;3.37;;;1.33;;
9848;SDS011;4963;51.444;6.528;2023-04-01T01:03:26;3.33;;;1.67;;
9848;SDS011;4963;51.444;6.528;2023-04-01T01:06:01;3.33;;;1.30;;
9848;SDS011;4963;51.444;6.528;2023-04-01T01:08:50;2.50;;;1.13;;
9848;SDS011;4963;51.444;6.528;2023-04-01T01:11:25;5.30;;;1.50;;
9848;SDS011;4963;51.444;6.528;2023-04-01T01:14:04;2.30;;;1.10;;
9848;SDS011;4963;51.444;6.528;2023-04-01T01:16:39;2.37;;;1.40;;
9848;SDS011;4963;51.444;6.528;2023-04-01T01:19:10;2.73;;;1.30;;
9848;SDS011;4963;51.444;6.528;2023-04-01T01:22:03;3.70;;;1.20;;
9848;SDS011;4963;51.444;6.528;2023-04-01T01:25:01;2.23;;;1.03;;
9848;SDS011;4963;51.444;6.528;2023-04-01T01:27:39;2.77;;;1.63;;
9848;SDS011;4963;51.444;6.528;2023-04-01T01:30:13;3.23;;;1.37;;
9848;SDS011;4963;51.444;6.528;2023-04-01T01:33:02;2.80;;;1.20;;
9848;SDS011;4963;51.444;6.528;2023-04-01T01:35:49;1.37;;;1.00;;
9848;SDS011;4963;51.444;6.528;2023-04-01T01:38:21;4.57;;;1.57;;
9848;SDS011;4963;51.444;6.528;2023-04-01T01:40:50;3.50;;;1.30;;
9848;SDS011;4963;51.444;6.528;2023-04-01T01:43:20;3.77;;;1.33;;
9848;SDS011;4963;51.444;6.528;2023-04-01T01:45:50;1.70;;;1.07;;
9848;SDS011;4963;51.444;6.528;2023-04-01T01:48:21;1.80;;;1.10;;
9848;SDS011;4963;51.444;6.528;2023-04-01T01:50:51;2.17;;;1.30;;
9848;SDS011;4963;51.444;6.528;2023-04-01T01:53:18;5.47;;;1.40;;
9848;SDS011;4963;51.444;6.528;2023-04-01T01:55:46;2.10;;;1.30;;
9848;SDS011;4963;51.444;6.528;2023-04-01T01:58:15;1.37;;;1.20;;
9848;SDS011;4963;51.444;6.528;2023-04-01T02:00:46;1.97;;;1.10;;
9848;SDS011;4963;51.444;6.528;2023-04-01T02:03:17;3.13;;;1.37;;
9848;SDS011;4963;51.444;6.528;2023-04-01T02:05:47;2.40;;;1.20;;
9848;SDS011;4963;51.444;6.528;2023-04-01T02:08:17;1.50;;;1.10;;
9848;SDS011;4963;51.444;6.528;2023-04-01T02:10:49;2.47;;;1.30;;
9848;SDS011;4963;51.444;6.528;2023-04-01T02:13:23;2.87;;;1.40;;
9848;SDS011;4963;51.444;6.528;2023-04-01T02:15:55;1.23;;;1.00;;
9848;SDS011;4963;51.444;6.528;2023-04-01T02:18:26;1.97;;;1.10;;
9848;SDS011;4963;51.444;6.528;2023-04-01T02:20:56;3.83;;;1.60;;
9848;SDS011;4963;51.444;6.528;2023-04-01T02:23:26;3.43;;;1.43;;
9848;SDS011;4963;51.444;6.528;2023-04-01T02:25:55;1.13;;;1.00;;
9848;SDS011;4963;51.444;6.528;2023-04-01T02:28:22;1.83;;;1.20;;
9848;SDS011;4963;51.444;6.528;2023-04-01T02:30:50;1.10;;;1.00;;
9848;SDS011;4963;51.444;6.528;2023-04-01T02:33:18;4.30;;;1.20;;
9848;SDS011;4963;51.444;6.528;2023-04-01T02:35:45;2.13;;;1.00;;
9848;SDS011;4963;51.444;6.528;2023-04-01T02:38:13;1.17;;;0.90;;
9848;SDS011;4963;51.444;6.528;2023-04-01T02:40:46;1.50;;;1.20;;
9848;SDS011;4963;51.444;6.528;2023-04-01T02:43:14;1.00;;;0.90;;
9848;SDS011;4963;51.444;6.528;2023-04-01T02:45:42;0.80;;;0.80;;
9848;SDS011;4963;51.444;6.528;2023-04-01T02:48:09;1.37;;;0.80;;
9848;SDS011;4963;51.444;6.528;2023-04-01T02:50:37;1.23;;;1.03;;
9848;SDS011;4963;51.444;6.528;2023-04-01T02:53:04;2.47;;;0.83;;
9848;SDS011;4963;51.444;6.528;2023-04-01T02:55:34;0.97;;;0.90;;
9848;SDS011;4963;51.444;6.528;2023-04-01T02:58:02;1.23;;;1.13;;
9848;SDS011;4963;51.444;6.528;2023-04-01T03:00:29;3.50;;;1.17;;
9848;SDS011;4963;51.444;6.528;2023-04-01T03:02:56;1.43;;;1.10;;
9848;SDS011;4963;51.444;6.528;2023-04-01T03:05:23;3.33;;;1.40;;
9848;SDS011;4963;51.444;6.528;2023-04-01T03:07:50;2.77;;;1.30;;
9848;SDS011;4963;51.444;6.528;2023-04-01T03:10:17;2.67;;;1.40;;
9848;SDS011;4963;51.444;6.528;2023-04-01T03:12:44;2.00;;;1.10;;
9848;SDS011;4963;51.444;6.528;2023-04-01T03:15:12;2.83;;;1.10;;
9848;SDS011;4963;51.444;6.528;2023-04-01T03:17:40;2.47;;;1.17;;
9848;SDS011;4963;51.444;6.528;2023-04-01T03:20:08;2.20;;;1.40;;
9848;SDS011;4963;51.444;6.528;2023-04-01T03:22:36;1.93;;;1.33;;
9848;SDS011;4963;51.444;6.528;2023-04-01T03:25:03;2.83;;;1.67;;
9848;SDS011;4963;51.444;6.528;2023-04-01T03:27:32;2.97;;;1.70;;
9848;SDS011;4963;51.444;6.528;2023-04-01T03:29:59;2.20;;;2.00;;
9848;SDS011;4963;51.444;6.528;2023-04-01T03:32:27;1.73;;;1.37;;
9848;SDS011;4963;51.444;6.528;2023-04-01T03:34:54;1.77;;;1.57;;
9848;SDS011;4963;51.444;6.528;2023-04-01T03:37:21;2.27;;;1.70;;
9848;SDS011;4963;51.444;6.528;2023-04-01T03:39:48;3.20;;;1.50;;
9848;SDS011;4963;51.444;6.528;2023-04-01T03:42:15;1.57;;;1.43;;
9848;SDS011;4963;51.444;6.528;2023-04-01T03:44:44;2.20;;;1.70;;
9848;SDS011;4963;51.444;6.528;2023-04-01T03:47:11;1.77;;;1.60;;
9848;SDS011;4963;51.444;6.528;2023-04-01T03:49:39;1.77;;;1.63;;
9848;SDS011;4963;51.444;6.528;2023-04-01T03:52:08;2.57;;;1.40;;
9848;SDS011;4963;51.444;6.528;2023-04-01T03:54:36;2.43;;;1.90;;
9848;SDS011;4963;51.444;6.528;2023-04-01T03:57:03;2.00;;;1.80;;
9848;SDS011;4963;51.444;6.528;2023-04-01T03:59:29;3.50;;;2.03;;
9848;SDS011;4963;51.444;6.528;2023-04-01T04:01:56;1.77;;;1.47;;
9848;SDS011;4963;51.444;6.528;2023-04-01T04:04:23;2.80;;;2.20;;
9848;SDS011;4963;51.444;6.528;2023-04-01T04:06:53;4.07;;;2.03;;
9848;SDS011;4963;51.444;6.528;2023-04-01T04:09:19;3.77;;;1.87;;
9848;SDS011;4963;51.444;6.528;2023-04-01T04:11:47;2.47;;;1.77;;
9848;SDS011;4963;51.444;6.528;2023-04-01T04:14:14;4.03;;;2.13;;
9848;SDS011;4963;51.444;6.528;2023-04-01T04:16:41;3.07;;;1.83;;
9848;SDS011;4963;51.444;6.528;2023-04-01T04:19:09;2.00;;;1.80;;
9848;SDS011;4963;51.444;6.528;2023-04-01T04:21:36;2.80;;;1.90;;
9848;SDS011;4963;51.444;6.528;2023-04-01T04:24:04;2.10;;;1.80;;
9848;SDS011;4963;51.444;6.528;2023-04-01T04:26:32;3.30;;;2.03;;
9848;SDS011;4963;51.444;6.528;2023-04-01T04:28:58;2.57;;;1.90;;
9848;SDS011;4963;51.444;6.528;2023-04-01T04:31:26;2.37;;;1.73;;
9848;SDS011;4963;51.444;6.528;2023-04-01T04:33:53;2.50;;;1.83;;
9848;SDS011;4963;51.444;6.528;2023-04-01T04:36:20;3.53;;;2.13;;
9848;SDS011;4963;51.444;6.528;2023-04-01T04:38:47;2.17;;;1.97;;
9848;SDS011;4963;51.444;6.528;2023-04-01T04:41:16;4.07;;;2.27;;
9848;SDS011;4963;51.444;6.528;2023-04-01T04:43:48;2.03;;;1.80;;
9848;SDS011;4963;51.444;6.528;2023-04-01T04:46:17;3.47;;;2.03;;
9848;SDS011;4963;51.444;6.528;2023-04-01T04:48:44;2.87;;;2.07;;
9848;SDS011;4963;51.444;6.528;2023-04-01T04:51:14;3.43;;;2.20;;
9848;SDS011;4963;51.444;6.528;2023-04-01T04:53:42;2.70;;;2.17;;
9848;SDS011;4963;51.444;6.528;2023-04-01T04:56:09;2.33;;;2.13;;
9848;SDS011;4963;51.444;6.528;2023-04-01T04:58:38;2.60;;;2.10;;
9848;SDS011;4963;51.444;6.528;2023-04-01T05:01:05;3.00;;;2.27;;
9848;SDS011;4963;51.444;6.528;2023-04-01T05:03:33;4.50;;;2.33;;
9848;SDS011;4963;51.444;6.528;2023-04-01T05:06:00;3.20;;;2.10;;
9848;SDS011;4963;51.444;6.528;2023-04-01T05:08:27;3.10;;;2.33;;
9848;SDS011;4963;51.444;6.528;2023-04-01T05:10:54;3.67;;;2.27;;
9848;SDS011;4963;51.444;6.528;2023-04-01T05:13:21;2.67;;;2.43;;
9848;SDS011;4963;51.444;6.528;2023-04-01T05:15:49;2.60;;;2.10;;
9848;SDS011;4963;51.444;6.528;2023-04-01T05:18:16;2.33;;;2.13;;
9848;SDS011;4963;51.444;6.528;2023-04-01T05:20:47;4.47;;;2.80;;
9848;SDS011;4963;51.444;6.528;2023-04-01T05:23:14;3.00;;;2.70;;
9848;SDS011;4963;51.444;6.528;2023-04-01T05:25:41;3.43;;;2.90;;
9848;SDS011;4963;51.444;6.528;2023-04-01T05:28:09;3.17;;;2.83;;
9848;SDS011;4963;51.444;6.528;2023-04-01T05:30:36;3.50;;;3.13;;
9848;SDS011;4963;51.444;6.528;2023-04-01T05:33:08;3.90;;;3.50;;
9848;SDS011;4963;51.444;6.528;2023-04-01T05:35:35;4.03;;;3.63;;
9848;SDS011;4963;51.444;6.528;2023-04-01T05:38:02;4.10;;;3.70;;
9848;SDS011;4963;51.444;6.528;2023-04-01T05:40:30;4.30;;;3.90;;
9848;SDS011;4963;51.444;6.528;2023-04-01T05:42:57;4.30;;;3.90;;
9848;SDS011;4963;51.444;6.528;2023-04-01T05:45:24;5.73;;;3.87;;
9848;SDS011;4963;51.444;6.528;2023-04-01T05:47:51;4.70;;;4.23;;
9848;SDS011;4963;51.444;6.528;2023-04-01T05:50:22;4.27;;;3.87;;
9848;SDS011;4963;51.444;6.528;2023-04-01T05:52:52;4.53;;;4.00;;
9848;SDS011;4963;51.444;6.528;2023-04-01T05:55:19;4.73;;;4.20;;
9848;SDS011;4963;51.444;6.528;2023-04-01T05:57:46;4.03;;;3.73;;
9848;SDS011;4963;51.444;6.528;2023-04-01T06:00:14;4.70;;;4.23;;
9848;SDS011;4963;51.444;6.528;2023-04-01T06:02:42;4.37;;;3.97;;
9848;SDS011;4963;51.444;6.528;2023-04-01T06:05:13;4.70;;;4.23;;
9848;SDS011;4963;51.444;6.528;2023-04-01T06:07:44;4.43;;;4.03;;
9848;SDS011;4963;51.444;6.528;2023-04-01T06:10:12;5.90;;;4.47;;
9848;SDS011;4963;51.444;6.528;2023-04-01T06:12:50;4.60;;;4.20;;
9848;SDS011;4963;51.444;6.528;2023-04-01T06:15:25;4.83;;;4.37;;
9848;SDS011;4963;51.444;6.528;2023-04-01T06:18:21;4.63;;;4.23;;
9848;SDS011;4963;51.444;6.528;2023-04-01T06:21:10;6.50;;;5.20;;
9848;SDS011;4963;51.444;6.528;2023-04-01T06:23:54;5.10;;;4.70;;
9848;SDS011;4963;51.444;6.528;2023-04-01T06:26:30;6.80;;;5.17;;
9848;SDS011;4963;51.444;6.528;2023-04-01T06:29:10;5.50;;;5.00;;
9848;SDS011;4963;51.444;6.528;2023-04-01T06:32:22;4.87;;;4.40;;
9848;SDS011;4963;51.444;6.528;2023-04-01T06:35:17;4.73;;;4.33;;
9848;SDS011;4963;51.444;6.528;2023-04-01T06:41:14;5.50;;;4.37;;
9848;SDS011;4963;51.444;6.528;2023-04-01T06:44:05;4.70;;;4.30;;
9848;SDS011;4963;51.444;6.528;2023-04-01T06:46:42;4.40;;;4.00;;
9848;SDS011;4963;51.444;6.528;2023-04-01T07:28:35;4.73;;;4.33;;
9848;SDS011;4963;51.444;6.528;2023-04-01T07:31:05;4.80;;;4.40;;
9848;SDS011;4963;51.444;6.528;2023-04-01T07:33:43;5.67;;;4.17;;
9848;SDS011;4963;51.444;6.528;2023-04-01T07:36:17;5.03;;;4.53;;
9848;SDS011;4963;51.444;6.528;2023-04-01T07:38:53;4.57;;;3.90;;
9848;SDS011;4963;51.444;6.528;2023-04-01T07:41:28;5.37;;;4.87;;
9848;SDS011;4963;51.444;6.528;2023-04-01T07:44:07;7.00;;;5.13;;
9848;SDS011;4963;51.444;6.528;2023-04-01T07:46:43;5.07;;;4.57;;
9848;SDS011;4963;51.444;6.528;2023-04-01T07:49:20;5.63;;;4.70;;
9848;SDS011;4963;51.444;6.528;2023-04-01T07:51:54;5.83;;;4.50;;
9848;SDS011;4963;51.444;6.528;2023-04-01T07:54:29;6.07;;;5.47;;
9848;SDS011;4963;51.444;6.528;2023-04-01T07:57:05;6.73;;;5.30;;
9848;SDS011;4963;51.444;6.528;2023-04-01T07:59:39;6.20;;;5.03;;
9848;SDS011;4963;51.444;6.528;2023-04-01T08:02:20;5.63;;;5.13;;
9848;SDS011;4963;51.444;6.528;2023-04-01T08:04:57;5.33;;;4.47;;
9848;SDS011;4963;51.444;6.528;2023-04-01T08:07:30;5.30;;;4.20;;
9848;SDS011;4963;51.444;6.528;2023-04-01T08:10:09;8.50;;;6.90;;
9848;SDS011;4963;51.444;6.528;2023-04-01T08:12:42;9.23;;;6.27;;
9848;SDS011;4963;51.444;6.528;2023-04-01T08:15:20;5.80;;;5.20;;
9848;SDS011;4963;51.444;6.528;2023-04-01T08:18:03;5.77;;;5.20;;
9848;SDS011;4963;51.444;6.528;2023-04-01T08:20:37;5.60;;;4.73;;
9848;SDS011;4963;51.444;6.528;2023-04-01T08:23:11;5.27;;;4.77;;
9848;SDS011;4963;51.444;6.528;2023-04-01T08:25:40;5.20;;;4.70;;
9848;SDS011;4963;51.444;6.528;2023-04-01T08:28:13;5.43;;;4.10;;
9848;SDS011;4963;51.444;6.528;2023-04-01T08:30:48;6.30;;;5.03;;
9848;SDS011;4963;51.444;6.528;2023-04-01T08:33:19;5.70;;;4.37;;
9848;SDS011;4963;51.444;6.528;2023-04-01T08:35:53;6.13;;;5.00;;
9848;SDS011;4963;51.444;6.528;2023-04-01T08:38:25;5.90;;;5.30;;
9848;SDS011;4963;51.444;6.528;2023-04-01T08:44:04;6.93;;;6.23;;
9848;SDS011;4963;51.444;6.528;2023-04-01T08:49:48;6.20;;;5.60;;
9848;SDS011;4963;51.444;6.528;2023-04-01T08:52:36;6.57;;;5.87;;
9848;SDS011;4963;51.444;6.528;2023-04-01T08:55:12;7.03;;;6.33;;
9848;SDS011;4963;51.444;6.528;2023-04-01T08:57:54;8.77;;;7.40;;
9848;SDS011;4963;51.444;6.528;2023-04-01T09:00:43;6.97;;;6.27;;
9848;SDS011;4963;51.444;6.528;2023-04-01T09:09:30;8.13;;;7.13;;
9848;SDS011;4963;51.444;6.528;2023-04-01T09:12:28;9.07;;;7.83;;
9848;SDS011;4963;51.444;6.528;2023-04-01T09:21:21;9.07;;;7.13;;
9848;SDS011;4963;51.444;6.528;2023-04-01T09:24:22;9.87;;;8.23;;
9848;SDS011;4963;51.444;6.528;2023-04-01T09:27:10;9.93;;;8.27;;
9848;SDS011;4963;51.444;6.528;2023-04-01T09:29:51;10.10;;;9.10;;
9848;SDS011;4963;51.444;6.528;2023-04-01T09:32:38;11.50;;;9.77;;
9848;SDS011;4963;51.444;6.528;2023-04-01T09:35:22;12.70;;;9.43;;
9848;SDS011;4963;51.444;6.528;2023-04-01T09:37:54;9.50;;;8.53;;
9848;SDS011;4963;51.444;6.528;2023-04-01T09:40:37;12.60;;;8.43;;
9848;SDS011;4963;51.444;6.528;2023-04-01T09:43:22;10.43;;;9.33;;
9848;SDS011;4963;51.444;6.528;2023-04-01T09:46:11;9.90;;;8.97;;
9848;SDS011;4963;51.444;6.528;2023-04-01T09:51:37;10.50;;;9.47;;
9848;SDS011;4963;51.444;6.528;2023-04-01T09:54:13;12.43;;;10.97;;
9848;SDS011;4963;51.444;6.528;2023-04-01T09:57:04;11.73;;;10.50;;
9848;SDS011;4963;51.444;6.528;2023-04-01T10:06:06;10.50;;;8.33;;
9848;SDS011;4963;51.444;6.528;2023-04-01T10:09:11;12.00;;;9.57;;
9848;SDS011;4963;51.444;6.528;2023-04-01T10:12:17;10.97;;;9.50;;
9848;SDS011;4963;51.444;6.528;2023-04-01T10:24:41;12.73;;;11.00;;
9848;SDS011;4963;51.444;6.528;2023-04-01T10:30:54;12.43;;;9.43;;
9848;SDS011;4963;51.444;6.528;2023-04-01T10:33:57;15.07;;;11.17;;
9848;SDS011;4963;51.444;6.528;2023-04-01T10:36:50;13.30;;;11.17;;
9848;SDS011;4963;51.444;6.528;2023-04-01T10:39:33;13.63;;;11.30;;
9848;SDS011;4963;51.444;6.528;2023-04-01T10:42:30;14.23;;;10.63;;
9848;SDS011;4963;51.444;6.528;2023-04-01T10:45:30;13.13;;;11.13;;
9848;SDS011;4963;51.444;6.528;2023-04-01T10:48:13;14.87;;;10.97;;
9848;SDS011;4963;51.444;6.528;2023-04-01T10:51:01;14.20;;;10.50;;
9848;SDS011;4963;51.444;6.528;2023-04-01T10:53:40;17.07;;;11.57;;
9848;SDS011;4963;51.444;6.528;2023-04-01T10:59:22;11.33;;;10.13;;
9848;SDS011;4963;51.444;6.528;2023-04-01T11:08:41;11.57;;;10.30;;
9848;SDS011;4963;51.444;6.528;2023-04-01T11:11:41;13.63;;;11.10;;
9848;SDS011;4963;51.444;6.528;2023-04-01T11:14:37;12.53;;;11.23;;
9848;SDS011;4963;51.444;6.528;2023-04-01T11:17:33;14.20;;;11.10;;
9848;SDS011;4963;51.444;6.528;2023-04-01T11:23:31;12.20;;;11.00;;
9848;SDS011;4963;51.444;6.528;2023-04-01T11:26:14;13.77;;;10.63;;
9848;SDS011;4963;51.444;6.528;2023-04-01T11:32:01;13.40;;;10.73;;
9848;SDS011;4963;51.444;6.528;2023-04-01T11:34:41;12.20;;;9.57;;
9848;SDS011;4963;51.444;6.528;2023-04-01T11:37:24;11.63;;;10.10;;
9848;SDS011;4963;51.444;6.528;2023-04-01T11:39:59;10.30;;;9.13;;
9848;SDS011;4963;51.444;6.528;2023-04-01T11:42:39;10.83;;;9.70;;
9848;SDS011;4963;51.444;6.528;2023-04-01T11:45:19;10.20;;;8.70;;
9848;SDS011;4963;51.444;6.528;2023-04-01T11:53:59;9.00;;;8.07;;
9848;SDS011;4963;51.444;6.528;2023-04-01T11:56:37;8.40;;;7.60;;
9848;SDS011;4963;51.444;6.528;2023-04-01T11:59:22;9.17;;;8.27;;
9848;SDS011;4963;51.444;6.528;2023-04-01T12:02:11;8.70;;;7.90;;
9848;SDS011;4963;51.444;6.528;2023-04-01T12:04:51;9.60;;;8.57;;
9848;SDS011;4963;51.444;6.528;2023-04-01T12:07:27;9.30;;;8.40;;
9848;SDS011;4963;51.444;6.528;2023-04-01T12:10:13;8.80;;;8.00;;
9848;SDS011;4963;51.444;6.528;2023-04-01T12:12:46;8.70;;;7.80;;
9848;SDS011;4963;51.444;6.528;2023-04-01T12:15:23;10.43;;;7.63;;
9848;SDS011;4963;51.444;6.528;2023-04-01T12:17:58;10.30;;;8.43;;
9848;SDS011;4963;51.444;6.528;2023-04-01T12:20:41;8.63;;;7.73;;
9848;SDS011;4963;51.444;6.528;2023-04-01T12:23:21;10.60;;;8.63;;
9848;SDS011;4963;51.444;6.528;2023-04-01T12:26:12;9.20;;;7.83;;
9848;SDS011;4963;51.444;6.528;2023-04-01T12:28:59;12.60;;;8.73;;
9848;SDS011;4963;51.444;6.528;2023-04-01T12:31:45;9.30;;;8.00;;
9848;SDS011;4963;51.444;6.528;2023-04-01T12:34:26;8.97;;;7.87;;
9848;SDS011;4963;51.444;6.528;2023-04-01T12:37:07;10.10;;;8.20;;
9848;SDS011;4963;51.444;6.528;2023-04-01T12:39:50;9.63;;;8.70;;
9848;SDS011;4963;51.444;6.528;2023-04-01T12:42:36;11.73;;;8.73;;
9848;SDS011;4963;51.444;6.528;2023-04-01T12:45:23;11.70;;;9.10;;
9848;SDS011;4963;51.444;6.528;2023-04-01T12:47:59;9.90;;;8.57;;
9848;SDS011;4963;51.444;6.528;2023-04-01T12:57:16;9.93;;;7.80;;
9848;SDS011;4963;51.444;6.528;2023-04-01T12:59:58;10.30;;;8.13;;
9848;SDS011;4963;51.444;6.528;2023-04-01T13:02:37;8.93;;;8.03;;
9848;SDS011;4963;51.444;6.528;2023-04-01T13:05:20;9.80;;;8.40;;
9848;SDS011;4963;51.444;6.528;2023-04-01T13:08:04;10.87;;;8.37;;
9848;SDS011;4963;51.444;6.528;2023-04-01T13:10:48;10.63;;;8.87;;
9848;SDS011;4963;51.444;6.528;2023-04-01T13:13:33;9.70;;;8.17;;
9848;SDS011;4963;51.444;6.528;2023-04-01T13:16:14;9.07;;;7.90;;
9848;SDS011;4963;51.444;6.528;2023-04-01T13:18:50;10.07;;;8.73;;
9848;SDS011;4963;51.444;6.528;2023-04-01T13:21:25;9.57;;;8.40;;
9848;SDS011;4963;51.444;6.528;2023-04-01T13:24:06;9.87;;;8.30;;
9848;SDS011;4963;51.444;6.528;2023-04-01T13:26:45;10.03;;;8.77;;
9848;SDS011;4963;51.444;6.528;2023-04-01T13:29:23;10.80;;;8.43;;
9848;SDS011;4963;51.444;6.528;2023-04-01T13:32:00;10.43;;;9.20;;
9848;SDS011;4963;51.444;6.528;2023-04-01T13:34:39;10.73;;;8.67;;
9848;SDS011;4963;51.444;6.528;2023-04-01T13:37:21;9.47;;;8.13;;
9848;SDS011;4963;51.444;6.528;2023-04-01T13:40:12;10.00;;;8.77;;
9848;SDS011;4963;51.444;6.528;2023-04-01T13:42:49;9.30;;;7.87;;
9848;SDS011;4963;51.444;6.528;2023-04-01T13:45:21;9.10;;;8.20;;
9848;SDS011;4963;51.444;6.528;2023-04-01T13:47:53;11.10;;;8.03;;
9848;SDS011;4963;51.444;6.528;2023-04-01T13:50:45;8.67;;;7.60;;
9848;SDS011;4963;51.444;6.528;2023-04-01T13:53:35;9.37;;;8.10;;
9848;SDS011;4963;51.444;6.528;2023-04-01T13:56:37;8.70;;;7.80;;
9848;SDS011;4963;51.444;6.528;2023-04-01T13:59:24;8.37;;;7.47;;
9848;SDS011;4963;51.444;6.528;2023-04-01T14:02:20;8.00;;;7.20;;
9848;SDS011;4963;51.444;6.528;2023-04-01T14:05:07;7.47;;;6.77;;
9848;SDS011;4963;51.444;6.528;2023-04-01T14:07:59;8.50;;;7.40;;
9848;SDS011;4963;51.444;6.528;2023-04-01T14:10:35;8.80;;;7.50;;
9848;SDS011;4963;51.444;6.528;2023-04-01T14:13:07;9.80;;;6.70;;
9848;SDS011;4963;51.444;6.528;2023-04-01T14:15:48;7.00;;;6.30;;
9848;SDS011;4963;51.444;6.528;2023-04-01T14:18:41;6.03;;;5.43;;
9848;SDS011;4963;51.444;6.528;2023-04-01T14:21:21;6.80;;;6.20;;
9848;SDS011;4963;51.444;6.528;2023-04-01T14:27:09;7.60;;;6.27;;
9848;SDS011;4963;51.444;6.528;2023-04-01T14:29:49;6.60;;;6.00;;
9848;SDS011;4963;51.444;6.528;2023-04-01T14:32:30;7.03;;;6.33;;
9848;SDS011;4963;51.444;6.528;2023-04-01T14:35:12;6.97;;;6.03;;
9848;SDS011;4963;51.444;6.528;2023-04-01T14:40:54;7.60;;;6.30;;
9848;SDS011;4963;51.444;6.528;2023-04-01T14:43:28;7.13;;;6.17;;
9848;SDS011;4963;51.444;6.528;2023-04-01T14:46:30;8.03;;;5.87;;
9848;SDS011;4963;51.444;6.528;2023-04-01T14:49:17;6.07;;;5.47;;
9848;SDS011;4963;51.444;6.528;2023-04-01T14:51:48;6.57;;;5.93;;
9848;SDS011;4963;51.444;6.528;2023-04-01T14:54:18;13.40;;;9.43;;
9848;SDS011;4963;51.444;6.528;2023-04-01T14:57:01;10.17;;;8.10;;
9848;SDS011;4963;51.444;6.528;2023-04-01T14:59:31;8.60;;;7.00;;
9848;SDS011;4963;51.444;6.528;2023-04-01T15:02:00;17.10;;;11.33;;
9848;SDS011;4963;51.444;6.528;2023-04-01T15:04:46;11.03;;;8.50;;
9848;SDS011;4963;51.444;6.528;2023-04-01T15:10:27;10.43;;;8.03;;
9848;SDS011;4963;51.444;6.528;2023-04-01T15:13:15;701.90;;;321.90;;
9848;SDS011;4963;51.444;6.528;2023-04-01T15:16:02;748.97;;;393.30;;
9848;SDS011;4963;51.444;6.528;2023-04-01T15:18:39;632.83;;;319.97;;
9848;SDS011;4963;51.444;6.528;2023-04-01T15:24:21;1976.53;;;779.90;;
9848;SDS011;4963;51.444;6.528;2023-04-01T15:27:02;448.70;;;200.27;;
9848;SDS011;4963;51.444;6.528;2023-04-01T15:29:57;297.67;;;111.80;;
9848;SDS011;4963;51.444;6.528;2023-04-01T15:32:43;111.87;;;48.43;;
9848;SDS011;4963;51.444;6.528;2023-04-01T15:35:21;51.03;;;23.13;;
9848;SDS011;4963;51.444;6.528;2023-04-01T15:37:58;17.37;;;10.93;;
9848;SDS011;4963;51.444;6.528;2023-04-01T15:40:36;11.80;;;8.23;;
9848;SDS011;4963;51.444;6.528;2023-04-01T15:43:14;15.03;;;9.10;;
9848;SDS011;4963;51.444;6.528;2023-04-01T15:45:51;11.10;;;6.77;;
9848;SDS011;4963;51.444;6.528;2023-04-01T15:48:28;8.80;;;6.10;;
9848;SDS011;4963;51.444;6.528;2023-04-01T15:51:08;8.47;;;5.80;;
9848;SDS011;4963;51.444;6.528;2023-04-01T15:53:51;9.40;;;5.30;;
9848;SDS011;4963;51.444;6.528;2023-04-01T15:59:41;7.00;;;6.30;;
9848;SDS011;4963;51.444;6.528;2023-04-01T16:02:21;6.20;;;5.60;;
9848;SDS011;4963;51.444;6.528;2023-04-01T16:04:56;8.47;;;6.77;;
9848;SDS011;4963;51.444;6.528;2023-04-01T16:07:42;6.83;;;6.13;;
9848;SDS011;4963;51.444;6.528;2023-04-01T16:13:12;6.30;;;5.70;;
9848;SDS011;4963;51.444;6.528;2023-04-01T16:15:52;6.57;;;5.63;;
9848;SDS011;4963;51.444;6.528;2023-04-01T16:18:32;7.50;;;5.83;;
9848;SDS011;4963;51.444;6.528;2023-04-01T16:21:12;7.80;;;7.00;;
9848;SDS011;4963;51.444;6.528;2023-04-01T16:23:48;6.90;;;6.20;;
9848;SDS011;4963;51.444;6.528;2023-04-01T16:26:19;7.30;;;6.63;;
9848;SDS011;4963;51.444;6.528;2023-04-01T16:28:55;6.30;;;5.70;;
9848;SDS011;4963;51.444;6.528;2023-04-01T16:31:32;7.07;;;6.20;;
9848;SDS011;4963;51.444;6.528;2023-04-01T16:34:06;7.00;;;6.40;;
9848;SDS011;4963;51.444;6.528;2023-04-01T16:36:37;7.77;;;7.07;;
9848;SDS011;4963;51.444;6.528;2023-04-01T16:39:15;8.00;;;7.20;;
9848;SDS011;4963;51.444;6.528;2023-04-01T16:41:52;7.70;;;7.00;;
9848;SDS011;4963;51.444;6.528;2023-04-01T16:44:44;7.70;;;6.90;;
9848;SDS011;4963;51.444;6.528;2023-04-01T16:47:16;9.20;;;8.37;;
9848;SDS011;4963;51.444;6.528;2023-04-01T16:49:46;8.00;;;7.30;;
9848;SDS011;4963;51.444;6.528;2023-04-01T16:52:29;8.50;;;7.70;;
9848;SDS011;4963;51.444;6.528;2023-04-01T16:55:01;8.37;;;7.17;;
9848;SDS011;4963;51.444;6.528;2023-04-01T16:57:46;8.03;;;7.33;;
9848;SDS011;4963;51.444;6.528;2023-04-01T17:00:21;10.93;;;7.90;;
9848;SDS011;4963;51.444;6.528;2023-04-01T17:02:52;9.37;;;7.73;;
9848;SDS011;4963;51.444;6.528;2023-04-01T17:05:35;8.60;;;7.90;;
9848;SDS011;4963;51.444;6.528;2023-04-01T17:08:08;8.33;;;7.33;;
9848;SDS011;4963;51.444;6.528;2023-04-01T17:10:45;8.63;;;7.77;;
9848;SDS011;4963;51.444;6.528;2023-04-01T17:13:31;8.83;;;7.93;;
9848;SDS011;4963;51.444;6.528;2023-04-01T17:16:12;8.93;;;8.03;;
9848;SDS011;4963;51.444;6.528;2023-04-01T17:18:50;9.50;;;7.90;;
9848;SDS011;4963;51.444;6.528;2023-04-01T17:21:25;9.00;;;7.23;;
9848;SDS011;4963;51.444;6.528;2023-04-01T17:24:00;9.27;;;8.37;;
9848;SDS011;4963;51.444;6.528;2023-04-01T17:26:36;8.70;;;7.93;;
9848;SDS011;4963;51.444;6.528;2023-04-01T17:29:10;9.73;;;8.73;;
9848;SDS011;4963;51.444;6.528;2023-04-01T17:31:49;9.73;;;8.73;;
9848;SDS011;4963;51.444;6.528;2023-04-01T17:34:26;8.73;;;7.93;;
9848;SDS011;4963;51.444;6.528;2023-04-01T17:37:06;10.03;;;8.90;;
9848;SDS011;4963;51.444;6.528;2023-04-01T17:39:51;9.47;;;8.57;;
9848;SDS011;4963;51.444;6.528;2023-04-01T17:42:46;10.63;;;9.07;;
9848;SDS011;4963;51.444;6.528;2023-04-01T17:45:20;10.27;;;8.50;;
9848;SDS011;4963;51.444;6.528;2023-04-01T17:47:58;10.90;;;9.77;;
9848;SDS011;4963;51.444;6.528;2023-04-01T17:50:34;9.43;;;8.53;;
9848;SDS011;4963;51.444;6.528;2023-04-01T17:53:13;9.57;;;8.63;;
9848;SDS011;4963;51.444;6.528;2023-04-01T17:58:44;10.23;;;9.23;;
9848;SDS011;4963;51.444;6.528;2023-04-01T18:01:15;10.20;;;9.20;;
9848;SDS011;4963;51.444;6.528;2023-04-01T18:03:56;10.63;;;9.63;;
9848;SDS011;4963;51.444;6.528;2023-04-01T18:06:34;13.07;;;11.43;;
9848;SDS011;4963;51.444;6.528;2023-04-01T18:09:09;12.97;;;11.67;;
9848;SDS011;4963;51.444;6.528;2023-04-01T18:11:47;16.87;;;14.70;;
9848;SDS011;4963;51.444;6.528;2023-04-01T18:14:31;12.40;;;11.20;;
9848;SDS011;4963;51.444;6.528;2023-04-01T18:17:17;11.87;;;10.77;;
9848;SDS011;4963;51.444;6.528;2023-04-01T18:19:55;10.63;;;9.63;;